CMR weather

Public forecast

Using degrees Celsius for public forecast. Weather courtesy of forecast.io.

Current aviation weather report (METAR) for Colmar-Houssen Airport

Retrieved 2020/08/09 03:00 UTC (2 minutes ago):

LFGA 090300Z AUTO 25002KT CAVOK 19/13 Q1018

Closest aviation forecast (TAF) to Colmar-Houssen Airport

Closest forecast is Strasbourg Airport, 27.9 nm (51.6 km) NNE. Retrieved 2020-08-09 00:00 UTC (3 hours ago):

TAF LFST 082300Z 0900/0924 VRB04KT CAVOK TEMPO 0913/0921 11006KT